createdAt,value
2022-11-30T00:00:33.368Z,27.00
2022-11-30T00:03:00.222Z,26.60
2022-11-30T00:05:27.338Z,28.08
2022-11-30T00:07:54.605Z,25.17
2022-11-30T00:10:22.384Z,28.92
2022-11-30T00:12:49.741Z,24.25
2022-11-30T00:15:17.469Z,28.27
2022-11-30T00:17:44.847Z,27.00
2022-11-30T00:20:13.474Z,25.80
2022-11-30T00:22:40.390Z,25.92
2022-11-30T00:25:07.940Z,27.23
2022-11-30T00:27:35.120Z,21.35
2022-11-30T00:30:01.855Z,24.85
2022-11-30T00:32:28.838Z,25.75
2022-11-30T00:34:55.670Z,27.52
2022-11-30T00:37:22.196Z,29.63
2022-11-30T00:39:49.026Z,22.05
2022-11-30T00:42:15.559Z,21.92
2022-11-30T00:44:42.109Z,24.15
2022-11-30T00:47:08.811Z,19.08
2022-11-30T00:49:35.400Z,21.98
2022-11-30T00:52:02.340Z,21.60
2022-11-30T00:54:28.944Z,18.83
2022-11-30T00:56:55.513Z,16.83
2022-11-30T00:59:22.067Z,15.07
2022-11-30T01:01:49.023Z,16.38
2022-11-30T01:04:16.094Z,19.52
2022-11-30T01:06:43.595Z,21.42
2022-11-30T01:09:10.239Z,19.27
2022-11-30T01:11:36.769Z,20.58
2022-11-30T01:14:03.354Z,18.95
2022-11-30T01:16:32.654Z,19.85
2022-11-30T01:19:00.172Z,21.52
2022-11-30T01:21:28.513Z,19.48
2022-11-30T01:23:55.560Z,29.55
2022-11-30T01:26:22.980Z,22.13
2022-11-30T01:28:51.825Z,18.65
2022-11-30T01:31:19.190Z,19.73
2022-11-30T01:33:50.828Z,19.80
2022-11-30T01:36:22.848Z,21.58
2022-11-30T01:38:53.337Z,26.02
2022-11-30T01:41:32.525Z,22.40
2022-11-30T01:44:26.287Z,21.90
2022-11-30T01:46:56.156Z,22.40
2022-11-30T01:49:54.280Z,20.38
2022-11-30T01:52:25.247Z,22.60
2022-11-30T01:54:57.374Z,21.08
2022-11-30T01:57:34.320Z,18.85
2022-11-30T02:00:03.873Z,22.80
2022-11-30T02:02:44.974Z,24.88
2022-11-30T02:05:12.872Z,22.73
2022-11-30T02:07:40.345Z,19.20
2022-11-30T02:10:07.479Z,16.73
2022-11-30T02:12:44.505Z,23.67
2022-11-30T02:15:21.285Z,20.27
2022-11-30T02:18:05.752Z,17.98
2022-11-30T02:20:48.942Z,19.10
2022-11-30T02:24:00.505Z,25.65
2022-11-30T02:26:42.864Z,17.13
2022-11-30T02:29:28.384Z,20.95
2022-11-30T02:32:03.979Z,18.98
2022-11-30T02:34:34.006Z,19.45
2022-11-30T02:37:02.020Z,17.02
2022-11-30T02:39:28.590Z,19.10
2022-11-30T02:41:55.170Z,17.30
2022-11-30T02:44:22.886Z,21.92
2022-11-30T02:46:50.978Z,18.30
2022-11-30T02:49:30.455Z,18.02
2022-11-30T02:51:58.570Z,19.05
2022-11-30T02:54:25.621Z,21.13
2022-11-30T02:56:52.180Z,19.05
2022-11-30T02:59:19.391Z,20.63
2022-11-30T03:01:46.122Z,18.60
2022-11-30T03:04:12.742Z,24.38
2022-11-30T03:06:39.702Z,19.25
2022-11-30T03:09:06.253Z,17.63
2022-11-30T03:11:33.809Z,19.83
2022-11-30T03:14:00.430Z,21.77
2022-11-30T03:16:27.047Z,24.55
2022-11-30T03:18:53.853Z,20.33
2022-11-30T03:21:20.454Z,18.80
2022-11-30T03:23:47.024Z,24.77
2022-11-30T03:26:13.583Z,22.45
2022-11-30T03:28:43.102Z,21.33
2022-11-30T03:31:13.779Z,16.23
2022-11-30T03:33:41.624Z,22.65
2022-11-30T03:36:10.900Z,20.33
2022-11-30T03:38:37.776Z,22.20
2022-11-30T03:41:11.938Z,18.58
2022-11-30T03:43:38.751Z,18.00
2022-11-30T03:46:05.489Z,15.77
2022-11-30T03:48:32.366Z,25.52
2022-11-30T03:50:58.945Z,19.08
2022-11-30T03:53:25.888Z,21.00
2022-11-30T03:55:54.955Z,20.77
2022-11-30T03:58:23.296Z,16.77
2022-11-30T04:00:50.466Z,16.80
2022-11-30T04:03:17.135Z,13.68
2022-11-30T04:05:43.715Z,18.75
2022-11-30T04:08:10.250Z,15.43
2022-11-30T04:10:37.100Z,17.88
2022-11-30T04:13:03.662Z,14.70
2022-11-30T04:15:30.526Z,12.20
2022-11-30T04:17:57.087Z,16.92
2022-11-30T04:20:23.668Z,14.35
2022-11-30T04:22:50.367Z,16.00
2022-11-30T04:25:17.015Z,14.00
2022-11-30T04:27:47.050Z,15.10
2022-11-30T04:30:14.403Z,19.42
2022-11-30T04:32:40.946Z,20.08
2022-11-30T04:35:08.281Z,17.65
2022-11-30T04:37:34.880Z,16.98
2022-11-30T04:40:01.585Z,19.13
2022-11-30T04:42:28.434Z,17.40
2022-11-30T04:44:54.999Z,17.85
2022-11-30T04:47:21.558Z,18.50
2022-11-30T04:49:48.170Z,16.15
2022-11-30T04:52:15.867Z,15.77
2022-11-30T04:54:42.921Z,16.70
2022-11-30T04:57:09.483Z,17.65
2022-11-30T04:59:37.011Z,17.67
2022-11-30T05:02:03.737Z,18.90
2022-11-30T05:04:30.580Z,19.33
2022-11-30T05:06:57.422Z,16.13
2022-11-30T05:09:24.717Z,18.80
2022-11-30T05:11:51.748Z,15.48
2022-11-30T05:14:18.345Z,15.20
2022-11-30T05:16:48.151Z,18.33
2022-11-30T05:19:14.980Z,17.27
2022-11-30T05:21:45.575Z,14.25
2022-11-30T05:24:12.852Z,19.88
2022-11-30T05:26:39.516Z,17.30
2022-11-30T05:29:06.792Z,16.60
2022-11-30T05:31:33.691Z,20.65
2022-11-30T05:34:00.249Z,14.95
2022-11-30T05:36:26.816Z,15.68
2022-11-30T05:38:53.378Z,25.23
2022-11-30T05:41:19.874Z,20.02
2022-11-30T05:43:46.798Z,19.08
2022-11-30T05:46:13.661Z,17.38
2022-11-30T05:48:40.556Z,19.45
2022-11-30T05:51:17.753Z,20.13
2022-11-30T05:53:45.578Z,17.00
2022-11-30T05:56:17.342Z,18.92
2022-11-30T05:58:44.792Z,15.98
2022-11-30T06:01:22.614Z,18.25
2022-11-30T06:03:49.615Z,19.45
2022-11-30T06:06:16.195Z,17.08
2022-11-30T06:08:44.724Z,22.02
2022-11-30T06:11:11.460Z,20.05
2022-11-30T06:13:39.847Z,18.27
2022-11-30T06:16:07.310Z,18.85
2022-11-30T06:18:34.729Z,20.60
2022-11-30T06:21:08.103Z,21.80
2022-11-30T06:23:34.790Z,16.95
2022-11-30T06:26:11.753Z,24.23
2022-11-30T06:28:40.585Z,20.10
2022-11-30T06:31:08.931Z,21.63
2022-11-30T06:33:35.782Z,22.25
2022-11-30T06:36:03.504Z,28.77
2022-11-30T06:38:30.425Z,21.08
2022-11-30T06:41:07.652Z,21.42
2022-11-30T06:43:38.560Z,20.77
2022-11-30T06:46:07.038Z,22.23
2022-11-30T06:48:34.744Z,22.30
2022-11-30T06:51:04.455Z,24.35
2022-11-30T06:53:31.757Z,19.85
2022-11-30T06:55:58.334Z,25.85
2022-11-30T06:58:24.921Z,23.95
2022-11-30T07:00:51.448Z,24.92
2022-11-30T07:03:18.093Z,19.80
2022-11-30T07:05:46.139Z,20.85
2022-11-30T07:08:14.912Z,26.60
2022-11-30T07:10:43.236Z,19.92
2022-11-30T07:13:11.935Z,19.42
2022-11-30T07:15:42.320Z,22.02
2022-11-30T07:18:09.856Z,22.38
2022-11-30T07:20:37.965Z,25.27
2022-11-30T07:23:23.844Z,21.40
2022-11-30T07:26:08.094Z,21.95
2022-11-30T07:28:50.191Z,24.10
2022-11-30T07:31:31.626Z,24.45
2022-11-30T07:34:02.645Z,23.70
2022-11-30T07:36:31.453Z,23.88
2022-11-30T07:38:58.273Z,20.10
2022-11-30T07:41:25.540Z,20.67
2022-11-30T07:43:52.182Z,24.95
2022-11-30T07:46:19.125Z,22.50
2022-11-30T07:48:46.472Z,22.45
2022-11-30T07:51:18.935Z,23.23
2022-11-30T07:53:45.752Z,25.13
2022-11-30T07:56:14.766Z,18.08
2022-11-30T07:58:42.207Z,22.73
2022-11-30T08:01:14.777Z,23.90
2022-11-30T08:03:41.913Z,21.50
2022-11-30T08:06:11.511Z,20.75
2022-11-30T08:08:41.112Z,29.48
2022-11-30T08:11:10.318Z,24.15
2022-11-30T08:13:36.974Z,20.80
2022-11-30T08:16:08.469Z,25.55
2022-11-30T08:18:35.813Z,22.42
2022-11-30T08:21:04.687Z,24.08
2022-11-30T08:23:34.111Z,20.38
2022-11-30T08:26:06.644Z,23.90
2022-11-30T08:28:35.972Z,19.92
2022-11-30T08:31:05.373Z,22.75
2022-11-30T08:33:32.797Z,16.63
2022-11-30T08:36:16.169Z,22.98
2022-11-30T08:38:44.507Z,25.65
2022-11-30T08:41:15.043Z,24.13
2022-11-30T08:43:42.197Z,23.70
2022-11-30T08:54:31.399Z,23.98
2022-11-30T08:56:59.076Z,26.48
2022-11-30T08:59:25.915Z,23.60
2022-11-30T09:01:52.429Z,20.08
2022-11-30T09:04:19.003Z,23.33
2022-11-30T09:06:45.570Z,19.92
2022-11-30T09:09:12.128Z,22.85
2022-11-30T09:11:38.741Z,20.67
2022-11-30T09:14:05.465Z,24.92
2022-11-30T09:16:32.098Z,30.60
2022-11-30T09:18:58.704Z,18.45
2022-11-30T09:21:26.896Z,29.35
2022-11-30T09:23:56.155Z,21.80
2022-11-30T09:26:25.058Z,20.20
2022-11-30T09:28:52.856Z,27.50
2022-11-30T09:31:24.720Z,18.13
2022-11-30T09:33:52.252Z,20.90
2022-11-30T09:36:21.974Z,24.17
2022-11-30T09:38:48.739Z,20.95
2022-11-30T09:41:45.935Z,22.88
2022-11-30T09:44:28.610Z,19.27
2022-11-30T09:47:01.549Z,19.85
2022-11-30T09:49:44.134Z,21.35
2022-11-30T09:52:18.186Z,20.40
2022-11-30T09:54:47.855Z,17.92
2022-11-30T09:57:44.983Z,17.92
2022-11-30T10:00:21.642Z,23.90
2022-11-30T10:02:53.834Z,19.88
2022-11-30T10:05:58.276Z,23.17
2022-11-30T10:08:53.164Z,22.17
2022-11-30T10:11:50.805Z,20.33
2022-11-30T10:14:26.059Z,13.77
2022-11-30T10:16:55.540Z,18.30
2022-11-30T10:19:46.853Z,16.73
2022-11-30T10:22:31.196Z,18.30
2022-11-30T10:25:17.134Z,18.08
2022-11-30T10:28:17.774Z,18.42
2022-11-30T10:30:48.913Z,16.83
2022-11-30T10:33:19.014Z,20.83
2022-11-30T10:36:00.475Z,14.48
2022-11-30T10:38:36.625Z,18.73
2022-11-30T10:41:20.351Z,18.00
2022-11-30T10:43:57.180Z,13.13
2022-11-30T10:46:30.890Z,15.27
2022-11-30T10:49:12.580Z,14.52
2022-11-30T10:51:42.805Z,17.23
2022-11-30T10:54:18.984Z,12.88
2022-11-30T10:56:46.553Z,10.02
2022-11-30T10:59:40.526Z,14.10
2022-11-30T11:02:35.497Z,13.63
2022-11-30T11:05:09.485Z,14.75
2022-11-30T11:08:06.562Z,10.82
2022-11-30T11:10:37.161Z,19.33
2022-11-30T11:13:05.234Z,15.63
2022-11-30T11:15:34.044Z,13.88
2022-11-30T11:18:16.030Z,11.18
2022-11-30T11:20:43.513Z,14.45
2022-11-30T11:23:22.860Z,15.65
2022-11-30T11:25:53.152Z,12.68
2022-11-30T11:28:24.298Z,12.63
2022-11-30T11:30:55.950Z,11.00
2022-11-30T11:33:28.208Z,11.20
2022-11-30T11:36:16.779Z,11.38
2022-11-30T11:38:48.285Z,10.07
2022-11-30T11:41:20.836Z,11.80
2022-11-30T11:44:01.584Z,14.52
2022-11-30T11:46:30.030Z,11.55
2022-11-30T11:49:01.369Z,12.93
2022-11-30T11:51:39.728Z,13.65
2022-11-30T11:54:30.642Z,12.20
2022-11-30T11:56:58.710Z,14.85
2022-11-30T11:59:43.972Z,12.85
2022-11-30T12:02:32.047Z,14.38
2022-11-30T12:05:24.493Z,12.10
2022-11-30T12:08:15.954Z,15.95
2022-11-30T12:11:00.811Z,13.05
2022-11-30T12:13:38.398Z,11.35
2022-11-30T12:16:10.395Z,14.18
2022-11-30T12:19:00.122Z,12.20
2022-11-30T12:21:32.967Z,11.10
2022-11-30T12:24:19.770Z,11.48
2022-11-30T12:26:53.517Z,16.13
2022-11-30T12:29:39.105Z,11.32
2022-11-30T12:32:31.783Z,14.77
2022-11-30T12:35:29.232Z,13.60
2022-11-30T12:38:01.904Z,12.07
2022-11-30T12:40:43.887Z,16.50
2022-11-30T12:44:00.603Z,10.98
2022-11-30T12:46:45.640Z,13.57
2022-11-30T12:49:18.002Z,16.05
2022-11-30T12:51:59.039Z,12.00
2022-11-30T12:54:45.197Z,12.75
2022-11-30T12:57:18.791Z,15.07
2022-11-30T13:00:09.165Z,15.20
2022-11-30T13:02:38.439Z,11.68
2022-11-30T13:05:12.653Z,13.63
2022-11-30T13:07:57.041Z,14.38
2022-11-30T13:10:23.591Z,11.38
2022-11-30T13:12:54.210Z,17.60
2022-11-30T13:15:25.591Z,12.35
2022-11-30T13:17:53.717Z,14.95
2022-11-30T13:20:36.620Z,17.23
2022-11-30T13:23:28.583Z,14.23
2022-11-30T13:26:08.891Z,10.88
2022-11-30T13:28:41.649Z,14.18
2022-11-30T13:31:21.245Z,14.55
2022-11-30T13:33:53.750Z,13.75
2022-11-30T13:36:38.918Z,12.52
2022-11-30T13:39:14.865Z,15.70
2022-11-30T13:41:44.539Z,17.73
2022-11-30T13:44:32.519Z,14.65
2022-11-30T13:47:06.034Z,11.40
2022-11-30T13:49:35.715Z,15.68
2022-11-30T13:54:57.086Z,19.67
2022-11-30T13:57:30.038Z,16.88
2022-11-30T14:00:01.873Z,13.43
2022-11-30T14:02:31.962Z,16.45
2022-11-30T14:05:16.999Z,19.40
2022-11-30T14:07:45.749Z,21.15
2022-11-30T14:10:41.801Z,12.80
2022-11-30T14:13:11.211Z,17.30
2022-11-30T14:15:41.831Z,19.40
2022-11-30T14:18:08.279Z,21.33
2022-11-30T14:20:58.399Z,17.75
2022-11-30T14:23:55.567Z,19.33
2022-11-30T14:26:39.090Z,20.30
2022-11-30T14:29:08.786Z,18.05
2022-11-30T14:32:12.554Z,19.83
2022-11-30T14:34:43.833Z,18.50
2022-11-30T14:37:18.679Z,17.55
2022-11-30T14:39:46.622Z,16.52
2022-11-30T14:42:45.985Z,18.40
2022-11-30T14:46:00.261Z,15.75
2022-11-30T14:48:31.167Z,17.48
2022-11-30T14:51:03.758Z,18.77
2022-11-30T14:53:47.000Z,18.17
2022-11-30T14:56:47.884Z,15.93
2022-11-30T14:59:48.827Z,17.83
2022-11-30T15:02:34.280Z,17.98
2022-11-30T15:05:01.724Z,17.25
2022-11-30T15:07:29.746Z,15.48
2022-11-30T15:10:04.121Z,15.50
2022-11-30T15:12:31.920Z,14.83
2022-11-30T15:15:03.673Z,17.48
2022-11-30T15:17:30.538Z,14.88
2022-11-30T15:19:57.131Z,17.45
2022-11-30T15:22:24.631Z,16.20
2022-11-30T15:24:51.206Z,14.93
2022-11-30T15:27:23.678Z,14.07
2022-11-30T15:29:59.147Z,14.30
2022-11-30T15:32:26.768Z,18.20
2022-11-30T15:34:58.857Z,14.02
2022-11-30T15:37:30.408Z,11.93
2022-11-30T15:39:59.512Z,15.88
2022-11-30T15:42:41.887Z,13.70
2022-11-30T15:45:29.322Z,15.52
2022-11-30T15:47:58.142Z,9.68
2022-11-30T15:50:30.790Z,14.85
2022-11-30T15:53:03.097Z,17.55
2022-11-30T15:55:43.073Z,8.80
2022-11-30T15:58:37.858Z,14.20
2022-11-30T16:01:21.987Z,13.15
2022-11-30T16:03:54.745Z,12.32
2022-11-30T16:06:23.518Z,15.93
2022-11-30T16:08:51.130Z,13.70
2022-11-30T16:11:19.599Z,12.65
2022-11-30T16:13:47.267Z,14.43
2022-11-30T16:16:21.980Z,12.60
2022-11-30T16:18:48.836Z,19.38
2022-11-30T16:21:18.616Z,13.38
2022-11-30T16:23:46.682Z,15.90
2022-11-30T16:26:43.237Z,15.38
2022-11-30T16:29:04.405Z,13.18
2022-11-30T16:31:31.104Z,16.48
2022-11-30T16:33:57.722Z,11.15
2022-11-30T16:36:24.266Z,8.43
2022-11-30T16:38:52.209Z,10.57
2022-11-30T16:41:27.021Z,10.52
2022-11-30T16:43:57.537Z,9.00
2022-11-30T16:46:27.038Z,16.63
2022-11-30T16:48:54.327Z,9.38
2022-11-30T16:51:27.443Z,9.75
2022-11-30T16:53:54.466Z,11.73
2022-11-30T16:56:21.764Z,9.90
2022-11-30T16:58:48.449Z,7.88
2022-11-30T17:01:27.924Z,9.48
2022-11-30T17:03:57.030Z,12.63
2022-11-30T17:06:24.369Z,9.63
2022-11-30T17:08:50.971Z,11.80
2022-11-30T17:11:27.646Z,8.90
2022-11-30T17:13:54.216Z,11.55
2022-11-30T17:16:20.980Z,7.35
2022-11-30T17:18:47.551Z,10.05
2022-11-30T17:21:16.724Z,12.65
2022-11-30T17:23:44.464Z,10.90
2022-11-30T17:26:12.771Z,13.93
2022-11-30T17:28:41.497Z,12.40
2022-11-30T17:31:09.060Z,12.57
2022-11-30T17:33:36.785Z,9.77
2022-11-30T17:36:05.853Z,17.63
2022-11-30T17:38:34.463Z,9.45
2022-11-30T17:41:18.311Z,10.95
2022-11-30T17:43:45.738Z,11.82
2022-11-30T17:46:15.520Z,9.88
2022-11-30T17:48:43.274Z,13.02
2022-11-30T17:51:10.381Z,9.98
2022-11-30T17:53:38.494Z,15.30
2022-11-30T17:56:10.511Z,12.05
2022-11-30T17:58:42.969Z,12.63
2022-11-30T18:01:25.252Z,12.85
2022-11-30T18:03:53.270Z,15.88
2022-11-30T18:06:20.216Z,11.95
2022-11-30T18:08:47.114Z,11.25
2022-11-30T18:11:20.118Z,13.65
2022-11-30T18:13:48.133Z,15.15
2022-11-30T18:16:21.842Z,15.32
2022-11-30T18:18:49.151Z,11.75
2022-11-30T18:21:18.813Z,8.60
2022-11-30T18:23:46.380Z,12.57
2022-11-30T18:26:16.617Z,14.10
2022-11-30T18:28:44.415Z,12.95
2022-11-30T18:31:11.361Z,9.63
2022-11-30T18:33:38.424Z,13.68
2022-11-30T18:36:08.347Z,15.88
2022-11-30T18:38:38.269Z,13.23
2022-11-30T18:41:06.228Z,11.95
2022-11-30T18:43:33.703Z,17.08
2022-11-30T18:46:09.047Z,14.63
2022-11-30T18:48:36.391Z,12.75
2022-11-30T18:51:11.565Z,14.77
2022-11-30T18:53:38.261Z,14.43
2022-11-30T18:56:16.095Z,12.57
2022-11-30T18:58:43.504Z,12.75
2022-11-30T19:01:12.906Z,8.88
2022-11-30T19:03:39.925Z,10.20
2022-11-30T19:06:08.469Z,12.77
2022-11-30T19:08:35.921Z,12.80
2022-11-30T19:11:05.436Z,12.90
2022-11-30T19:13:33.199Z,9.75
2022-11-30T19:16:04.824Z,15.32
2022-11-30T19:18:31.889Z,12.13
2022-11-30T19:20:58.956Z,15.60
2022-11-30T19:23:26.484Z,10.88
2022-11-30T19:25:53.082Z,14.13
2022-11-30T19:28:19.741Z,13.18
2022-11-30T19:30:46.414Z,11.88
2022-11-30T19:33:14.088Z,12.80
2022-11-30T19:35:40.938Z,16.10
2022-11-30T19:38:07.530Z,16.65
2022-11-30T19:40:34.039Z,14.90
2022-11-30T19:43:00.650Z,15.15
2022-11-30T19:45:27.168Z,13.30
2022-11-30T19:47:53.710Z,11.30
2022-11-30T19:50:22.096Z,11.98
2022-11-30T19:52:49.426Z,13.52
2022-11-30T19:55:16.153Z,15.43
2022-11-30T19:57:42.830Z,10.80
2022-11-30T20:00:09.973Z,13.55
2022-11-30T20:02:42.361Z,16.20
2022-11-30T20:05:09.331Z,10.00
2022-11-30T20:07:36.384Z,11.75
2022-11-30T20:10:03.752Z,15.55
2022-11-30T20:12:30.307Z,12.63
2022-11-30T20:14:57.370Z,14.23
2022-11-30T20:17:23.972Z,10.63
2022-11-30T20:19:50.571Z,16.83
2022-11-30T20:22:17.187Z,10.10
2022-11-30T20:24:43.813Z,13.52
2022-11-30T20:27:10.331Z,14.02
2022-11-30T20:29:36.859Z,12.57
2022-11-30T20:32:03.407Z,21.10
2022-11-30T20:34:34.352Z,10.63
2022-11-30T20:37:02.602Z,13.60
2022-11-30T20:39:29.186Z,12.65
2022-11-30T20:41:55.957Z,13.00
2022-11-30T20:44:22.470Z,16.00
2022-11-30T20:46:49.218Z,14.02
2022-11-30T20:49:18.111Z,18.75
2022-11-30T20:51:45.566Z,17.38
2022-11-30T20:54:12.752Z,14.35
2022-11-30T20:56:40.522Z,11.65
2022-11-30T20:59:12.834Z,13.63
2022-11-30T21:01:44.963Z,15.38
2022-11-30T21:04:12.104Z,13.40
2022-11-30T21:06:39.218Z,11.80
2022-11-30T21:09:05.793Z,17.52
2022-11-30T21:11:32.299Z,12.15
2022-11-30T21:13:58.993Z,16.10
2022-11-30T21:16:28.929Z,15.15
2022-11-30T21:18:58.558Z,16.33
2022-11-30T21:21:28.580Z,15.90
2022-11-30T21:23:58.369Z,20.80
2022-11-30T21:26:28.170Z,19.83
2022-11-30T21:28:58.669Z,24.38
2022-11-30T21:31:25.349Z,20.52
2022-11-30T21:33:53.473Z,19.63
2022-11-30T21:36:21.844Z,22.35
2022-11-30T21:38:53.734Z,27.42
2022-11-30T21:41:20.412Z,19.38
2022-11-30T21:43:47.063Z,22.52
2022-11-30T21:46:15.861Z,15.18
2022-11-30T21:48:44.181Z,21.92
2022-11-30T21:51:31.501Z,22.38
2022-11-30T21:54:01.030Z,27.98
2022-11-30T21:56:30.973Z,21.13
2022-11-30T21:58:58.129Z,21.67
2022-11-30T22:01:34.105Z,18.80
2022-11-30T22:04:03.216Z,24.17
2022-11-30T22:06:31.544Z,24.45
2022-11-30T22:09:03.246Z,26.88
2022-11-30T22:11:30.771Z,18.92
2022-11-30T22:13:57.310Z,21.80
2022-11-30T22:16:25.855Z,23.38
2022-11-30T22:18:55.680Z,27.08
2022-11-30T22:21:24.364Z,24.17
2022-11-30T22:24:01.948Z,21.80
2022-11-30T22:26:31.194Z,29.25
2022-11-30T22:29:03.487Z,22.65
2022-11-30T22:31:34.000Z,21.27
2022-11-30T22:34:00.854Z,23.40
2022-11-30T22:36:29.873Z,26.95
2022-11-30T22:39:05.409Z,32.25
2022-11-30T22:41:32.655Z,26.95
2022-11-30T22:43:59.593Z,19.75
2022-11-30T22:46:29.021Z,26.98
2022-11-30T22:48:58.833Z,23.23
2022-11-30T22:51:27.662Z,27.42
2022-11-30T22:53:55.010Z,24.05
2022-11-30T22:56:23.710Z,25.27
2022-11-30T22:58:53.909Z,22.35
2022-11-30T23:01:30.164Z,28.85
2022-11-30T23:04:01.931Z,23.15
2022-11-30T23:06:28.898Z,34.97
2022-11-30T23:08:55.437Z,27.48
2022-11-30T23:11:25.065Z,29.15
2022-11-30T23:13:52.744Z,33.45
2022-11-30T23:16:20.393Z,33.00
2022-11-30T23:18:48.428Z,24.52
2022-11-30T23:21:20.577Z,24.52
2022-11-30T23:23:47.993Z,26.60
2022-11-30T23:26:24.219Z,31.98
2022-11-30T23:28:52.729Z,27.35
2022-11-30T23:31:33.763Z,26.30
2022-11-30T23:34:04.256Z,33.35
2022-11-30T23:36:30.882Z,31.15
2022-11-30T23:38:59.677Z,23.15
2022-11-30T23:41:26.692Z,31.95
2022-11-30T23:43:53.860Z,28.30
2022-11-30T23:46:20.889Z,32.20
2022-11-30T23:48:47.892Z,33.60
2022-11-30T23:51:14.411Z,26.38
2022-11-30T23:53:40.943Z,32.70
2022-11-30T23:56:11.792Z,31.17
2022-11-30T23:58:39.527Z,36.28
